createdAt,value
2023-09-19T00:00:15.139Z,69.68
2023-09-19T00:01:42.259Z,69.92
2023-09-19T00:02:53.435Z,69.83
2023-09-19T00:04:01.474Z,69.46
2023-09-19T00:05:11.211Z,69.62
2023-09-19T00:06:18.064Z,69.45
2023-09-19T00:07:24.615Z,70.04
2023-09-19T00:08:31.927Z,70.26
2023-09-19T00:09:38.784Z,69.89
2023-09-19T00:10:45.922Z,70.05
2023-09-19T00:11:52.716Z,70.25
2023-09-19T00:13:01.234Z,70.35
2023-09-19T00:14:10.193Z,70.34
2023-09-19T00:15:14.819Z,70.39
2023-09-19T00:16:21.549Z,70.24
2023-09-19T00:17:27.677Z,70.52
2023-09-19T00:18:35.943Z,70.71
2023-09-19T00:19:44.794Z,70.73
2023-09-19T00:20:52.504Z,70.40
2023-09-19T00:21:59.921Z,70.50
2023-09-19T00:23:07.194Z,70.44
2023-09-19T00:24:14.021Z,70.29
2023-09-19T00:25:23.668Z,70.16
2023-09-19T00:26:31.932Z,70.08
2023-09-19T00:27:41.226Z,70.44
2023-09-19T00:28:47.313Z,70.36
2023-09-19T00:29:54.265Z,70.25
2023-09-19T00:31:03.762Z,70.34
2023-09-19T00:32:11.717Z,69.96
2023-09-19T00:33:20.834Z,69.84
2023-09-19T00:34:27.801Z,70.33
2023-09-19T00:35:35.254Z,70.39
2023-09-19T00:36:41.271Z,70.19
2023-09-19T00:37:47.940Z,69.89
2023-09-19T00:38:54.436Z,70.30
2023-09-19T00:40:01.222Z,70.19
2023-09-19T00:41:08.560Z,69.95
2023-09-19T00:42:22.230Z,69.96
2023-09-19T00:43:29.071Z,69.99
2023-09-19T00:44:35.936Z,70.00
2023-09-19T00:45:46.755Z,69.78
2023-09-19T00:46:54.931Z,69.61
2023-09-19T00:48:10.553Z,69.65
2023-09-19T00:49:17.799Z,69.88
2023-09-19T00:50:27.460Z,69.53
2023-09-19T00:51:34.267Z,69.96
2023-09-19T00:52:43.781Z,70.62
2023-09-19T00:53:50.371Z,70.04
2023-09-19T00:54:57.714Z,69.70
2023-09-19T00:56:09.086Z,69.97
2023-09-19T00:57:16.385Z,70.02
2023-09-19T00:58:23.126Z,69.68
2023-09-19T00:59:31.494Z,69.43
2023-09-19T01:00:38.574Z,70.22
2023-09-19T01:01:47.840Z,69.86
2023-09-19T01:02:55.190Z,69.73
2023-09-19T01:04:02.228Z,69.70
2023-09-19T01:05:11.881Z,69.91
2023-09-19T01:06:19.460Z,70.22
2023-09-19T01:07:26.404Z,70.33
2023-09-19T01:08:33.905Z,70.87
2023-09-19T01:09:40.535Z,70.88
2023-09-19T01:10:54.082Z,70.64
2023-09-19T01:12:04.876Z,70.55
2023-09-19T01:13:23.011Z,70.51
2023-09-19T01:14:39.788Z,70.61
2023-09-19T01:15:56.312Z,71.12
2023-09-19T01:17:09.535Z,71.02
2023-09-19T01:18:23.381Z,71.01
2023-09-19T01:19:52.735Z,71.01
2023-09-19T01:21:07.322Z,71.14
2023-09-19T01:22:23.441Z,71.48
2023-09-19T01:23:56.664Z,71.28
2023-09-19T01:25:35.442Z,71.45
2023-09-19T01:27:20.216Z,72.00
2023-09-19T01:28:39.535Z,71.87
2023-09-19T01:29:48.035Z,71.94
2023-09-19T01:31:04.332Z,72.24
2023-09-19T01:32:15.019Z,72.15
2023-09-19T01:33:21.523Z,71.83
2023-09-19T01:34:27.953Z,71.74
2023-09-19T01:35:36.185Z,71.96
2023-09-19T01:36:43.534Z,71.97
2023-09-19T01:37:50.831Z,71.74
2023-09-19T01:39:01.477Z,71.83
2023-09-19T01:40:20.524Z,71.85
2023-09-19T01:41:52.824Z,71.80
2023-09-19T01:43:08.169Z,71.74
2023-09-19T01:44:23.423Z,71.89
2023-09-19T01:45:35.171Z,72.07
2023-09-19T01:46:48.536Z,72.29
2023-09-19T01:47:59.680Z,72.24
2023-09-19T01:49:20.076Z,72.14
2023-09-19T01:50:37.790Z,72.00
2023-09-19T01:51:52.493Z,72.00
2023-09-19T01:53:05.672Z,72.02
2023-09-19T01:54:17.877Z,72.29
2023-09-19T01:55:28.312Z,72.53
2023-09-19T01:56:41.283Z,72.32
2023-09-19T01:57:55.977Z,72.44
2023-09-19T01:59:07.373Z,72.55
2023-09-19T02:00:18.283Z,72.58
2023-09-19T02:01:26.206Z,72.62
2023-09-19T02:02:34.720Z,72.66
2023-09-19T02:03:42.982Z,72.80
2023-09-19T02:04:51.695Z,72.70
2023-09-19T02:05:57.982Z,72.76
2023-09-19T02:07:07.099Z,72.58
2023-09-19T02:08:11.608Z,72.67
2023-09-19T02:09:18.765Z,72.92
2023-09-19T02:10:25.398Z,72.96
2023-09-19T02:11:31.367Z,73.01
2023-09-19T02:12:37.503Z,73.03
2023-09-19T02:13:44.881Z,72.86
2023-09-19T02:14:51.465Z,72.58
2023-09-19T02:15:58.390Z,72.51
2023-09-19T02:17:10.825Z,72.82
2023-09-19T02:18:18.445Z,72.69
2023-09-19T02:19:25.152Z,72.74
2023-09-19T02:20:34.440Z,72.65
2023-09-19T02:21:41.413Z,72.67
2023-09-19T02:22:47.938Z,72.68
2023-09-19T02:23:53.839Z,72.60
2023-09-19T02:25:03.231Z,72.92
2023-09-19T02:26:09.659Z,72.84
2023-09-19T02:27:17.375Z,73.22
2023-09-19T02:28:24.255Z,72.95
2023-09-19T02:29:31.293Z,72.85
2023-09-19T02:30:37.896Z,72.99
2023-09-19T02:31:44.782Z,73.44
2023-09-19T02:32:52.083Z,73.30
2023-09-19T02:33:59.326Z,73.37
2023-09-19T02:35:07.767Z,73.37
2023-09-19T02:36:14.559Z,73.21
2023-09-19T02:37:20.952Z,73.26
2023-09-19T02:38:27.733Z,73.07
2023-09-19T02:39:34.352Z,73.22
2023-09-19T02:40:41.408Z,73.43
2023-09-19T02:41:48.629Z,73.27
2023-09-19T02:42:57.123Z,73.52
2023-09-19T02:44:03.835Z,73.54
2023-09-19T02:45:13.006Z,73.24
2023-09-19T02:46:19.599Z,73.31
2023-09-19T02:47:28.015Z,73.38
2023-09-19T02:48:37.249Z,73.43
2023-09-19T02:49:45.369Z,73.31
2023-09-19T02:50:53.919Z,73.32
2023-09-19T02:52:01.541Z,73.23
2023-09-19T02:53:08.034Z,73.13
2023-09-19T02:54:14.895Z,73.53
2023-09-19T02:55:24.066Z,73.39
2023-09-19T02:56:32.286Z,73.30
2023-09-19T02:57:41.940Z,73.17
2023-09-19T02:58:50.293Z,73.06
2023-09-19T02:59:56.480Z,73.51
2023-09-19T03:01:09.342Z,73.70
2023-09-19T03:02:17.871Z,73.50
2023-09-19T03:03:26.238Z,73.30
2023-09-19T03:04:34.609Z,73.44
2023-09-19T03:05:40.867Z,73.40
2023-09-19T03:06:47.601Z,73.29
2023-09-19T03:07:54.530Z,73.76
2023-09-19T03:09:01.443Z,73.73
2023-09-19T03:10:10.488Z,73.41
2023-09-19T03:11:17.746Z,73.52
2023-09-19T03:12:24.635Z,73.43
2023-09-19T03:13:32.398Z,73.74
2023-09-19T03:14:39.061Z,73.80
2023-09-19T03:15:48.968Z,73.61
2023-09-19T03:16:55.597Z,73.85
2023-09-19T03:18:02.462Z,73.94
2023-09-19T03:19:08.919Z,73.76
2023-09-19T03:20:18.707Z,73.66
2023-09-19T03:21:24.825Z,73.71
2023-09-19T03:22:34.236Z,73.95
2023-09-19T03:23:40.863Z,73.71
2023-09-19T03:24:47.665Z,73.58
2023-09-19T03:25:54.198Z,73.80
2023-09-19T03:27:01.226Z,73.75
2023-09-19T03:28:09.373Z,73.76
2023-09-19T03:29:17.354Z,74.01
2023-09-19T03:30:24.647Z,74.16
2023-09-19T03:31:32.995Z,74.37
2023-09-19T03:32:44.554Z,74.25
2023-09-19T03:33:51.428Z,74.28
2023-09-19T03:34:58.133Z,73.87
2023-09-19T03:36:08.359Z,73.63
2023-09-19T03:37:14.802Z,73.72
2023-09-19T03:38:23.276Z,73.86
2023-09-19T03:39:30.155Z,73.71
2023-09-19T03:40:39.239Z,73.74
2023-09-19T03:41:47.238Z,73.53
2023-09-19T03:42:53.967Z,73.55
2023-09-19T03:44:00.986Z,73.57
2023-09-19T03:45:14.513Z,73.35
2023-09-19T03:46:21.598Z,73.05
2023-09-19T03:47:28.459Z,72.91
2023-09-19T03:48:35.301Z,72.97
2023-09-19T03:49:42.198Z,73.09
2023-09-19T03:50:48.721Z,73.28
2023-09-19T03:51:54.817Z,73.05
2023-09-19T03:53:00.704Z,72.69
2023-09-19T03:54:07.552Z,72.48
2023-09-19T03:55:13.993Z,72.45
2023-09-19T03:56:20.085Z,72.36
2023-09-19T03:57:26.237Z,72.55
2023-09-19T03:58:32.918Z,72.97
2023-09-19T03:59:39.973Z,72.82
2023-09-19T04:00:46.694Z,72.87
2023-09-19T04:01:57.253Z,72.88
2023-09-19T04:03:08.331Z,72.78
2023-09-19T04:04:16.146Z,72.94
2023-09-19T04:05:22.148Z,72.55
2023-09-19T04:06:30.532Z,72.15
2023-09-19T04:07:36.615Z,71.68
2023-09-19T04:08:44.057Z,71.67
2023-09-19T04:09:50.685Z,71.83
2023-09-19T04:10:59.030Z,71.78
2023-09-19T04:12:06.624Z,71.61
2023-09-19T04:13:12.907Z,71.46
2023-09-19T04:14:19.810Z,71.50
2023-09-19T04:15:26.732Z,71.50
2023-09-19T04:16:33.338Z,71.36
2023-09-19T04:17:40.093Z,71.20
2023-09-19T04:18:46.624Z,71.08
2023-09-19T04:19:52.949Z,70.84
2023-09-19T04:20:59.934Z,70.69
2023-09-19T04:22:06.673Z,70.93
2023-09-19T04:23:14.839Z,70.83
2023-09-19T04:24:22.500Z,70.69
2023-09-19T04:25:29.103Z,70.69
2023-09-19T04:26:36.138Z,70.59
2023-09-19T04:27:45.281Z,70.46
2023-09-19T04:28:52.646Z,70.41
2023-09-19T04:30:00.554Z,70.20
2023-09-19T04:31:10.185Z,70.12
2023-09-19T04:32:18.489Z,70.04
2023-09-19T04:33:24.749Z,70.17
2023-09-19T04:34:32.627Z,70.39
2023-09-19T04:35:40.235Z,70.23
2023-09-19T04:36:46.363Z,70.11
2023-09-19T04:37:54.740Z,69.98
2023-09-19T04:39:03.300Z,69.68
2023-09-19T04:40:14.021Z,69.65
2023-09-19T04:41:20.744Z,69.18
2023-09-19T04:42:28.499Z,68.86
2023-09-19T04:43:34.958Z,68.78
2023-09-19T04:44:42.073Z,68.67
2023-09-19T04:45:48.411Z,68.81
2023-09-19T04:46:55.355Z,68.30
2023-09-19T04:48:01.917Z,68.03
2023-09-19T04:49:09.430Z,68.00
2023-09-19T04:50:16.148Z,67.94
2023-09-19T04:51:22.232Z,68.18
2023-09-19T04:52:31.971Z,68.53
2023-09-19T04:53:38.518Z,68.55
2023-09-19T04:54:46.599Z,68.64
2023-09-19T04:55:57.027Z,68.59
2023-09-19T04:57:03.604Z,68.69
2023-09-19T04:58:12.035Z,68.84
2023-09-19T04:59:18.786Z,68.83
2023-09-19T05:00:25.918Z,69.04
2023-09-19T05:01:33.632Z,69.07
2023-09-19T05:02:41.159Z,69.14
2023-09-19T05:03:50.846Z,69.16
2023-09-19T05:05:00.905Z,69.05
2023-09-19T05:06:09.814Z,69.08
2023-09-19T05:07:15.959Z,69.01
2023-09-19T05:08:23.454Z,69.21
2023-09-19T05:09:29.217Z,68.74
2023-09-19T05:10:36.636Z,69.12
2023-09-19T05:11:43.123Z,68.83
2023-09-19T05:12:52.959Z,68.47
2023-09-19T05:14:02.933Z,68.17
2023-09-19T05:15:10.648Z,68.26
2023-09-19T05:16:17.486Z,68.24
2023-09-19T05:17:26.419Z,68.13
2023-09-19T05:18:33.125Z,68.19
2023-09-19T05:19:39.730Z,68.18
2023-09-19T05:20:46.922Z,68.21
2023-09-19T05:21:53.265Z,68.13
2023-09-19T05:23:18.115Z,68.17
2023-09-19T05:24:27.733Z,68.21
2023-09-19T05:25:40.348Z,68.07
2023-09-19T05:26:46.869Z,68.09
2023-09-19T05:27:56.159Z,67.98
2023-09-19T05:29:03.680Z,67.93
2023-09-19T05:30:12.318Z,67.63
2023-09-19T05:31:18.596Z,67.60
2023-09-19T05:32:25.666Z,67.39
2023-09-19T05:33:33.458Z,67.41
2023-09-19T05:34:40.191Z,67.34
2023-09-19T05:35:48.635Z,67.15
2023-09-19T05:36:55.997Z,66.96
2023-09-19T05:38:03.319Z,66.80
2023-09-19T05:39:10.665Z,66.70
2023-09-19T05:40:18.113Z,66.54
2023-09-19T05:41:25.142Z,66.34
2023-09-19T05:42:31.773Z,66.20
2023-09-19T05:43:39.735Z,66.40
2023-09-19T05:44:46.110Z,65.92
2023-09-19T05:45:53.855Z,65.41
2023-09-19T05:47:00.371Z,65.09
2023-09-19T05:48:18.445Z,64.89
2023-09-19T05:49:26.290Z,64.83
2023-09-19T05:50:33.457Z,64.18
2023-09-19T05:51:41.347Z,64.00
2023-09-19T05:52:57.727Z,63.91
2023-09-19T05:54:06.312Z,63.91
2023-09-19T05:55:14.353Z,63.72
2023-09-19T05:56:23.473Z,63.96
2023-09-19T05:57:30.160Z,63.84
2023-09-19T05:58:36.003Z,63.72
2023-09-19T05:59:44.192Z,63.64
2023-09-19T06:00:51.445Z,63.67
2023-09-19T06:01:57.573Z,63.66
2023-09-19T06:03:04.676Z,63.74
2023-09-19T06:04:10.991Z,63.93
2023-09-19T06:05:19.428Z,64.14
2023-09-19T06:06:26.211Z,63.83
2023-09-19T06:07:37.750Z,63.67
2023-09-19T06:08:45.915Z,63.42
2023-09-19T06:09:53.373Z,63.37
2023-09-19T06:11:00.986Z,63.34
2023-09-19T06:12:09.696Z,63.42
2023-09-19T06:13:16.550Z,63.60
2023-09-19T06:14:25.618Z,63.67
2023-09-19T06:15:34.382Z,63.46
2023-09-19T06:16:41.270Z,63.62
2023-09-19T06:17:50.267Z,63.68
2023-09-19T06:18:58.289Z,63.71
2023-09-19T06:20:05.597Z,63.55
2023-09-19T06:21:12.564Z,63.65
2023-09-19T06:22:20.569Z,63.20
2023-09-19T06:23:30.522Z,62.54
2023-09-19T06:24:36.845Z,61.84
2023-09-19T06:25:44.600Z,61.12
2023-09-19T06:26:51.693Z,61.38
2023-09-19T06:27:59.005Z,61.42
2023-09-19T06:29:08.795Z,61.31
2023-09-19T06:30:17.064Z,61.33
2023-09-19T06:31:28.092Z,61.46
2023-09-19T06:32:34.712Z,61.41
2023-09-19T06:33:41.818Z,61.09
2023-09-19T06:34:56.747Z,60.78
2023-09-19T06:36:05.644Z,60.31
2023-09-19T06:37:12.271Z,59.87
2023-09-19T06:38:20.608Z,60.09
2023-09-19T06:39:27.441Z,60.12
2023-09-19T06:40:35.350Z,59.94
2023-09-19T06:41:43.419Z,59.77
2023-09-19T06:42:55.454Z,59.89
2023-09-19T06:44:04.084Z,60.02
2023-09-19T06:45:18.710Z,59.77
2023-09-19T06:46:26.275Z,59.66
2023-09-19T06:47:33.320Z,58.86
2023-09-19T06:48:39.877Z,58.84
2023-09-19T06:49:46.567Z,58.64
2023-09-19T06:50:55.664Z,58.12
2023-09-19T06:52:02.124Z,57.84
2023-09-19T06:53:08.891Z,57.60
2023-09-19T06:54:15.264Z,57.06
2023-09-19T06:55:22.570Z,56.53
2023-09-19T06:56:28.749Z,56.07
2023-09-19T06:57:36.301Z,56.00
2023-09-19T06:58:44.949Z,55.96
2023-09-19T06:59:51.947Z,55.76
2023-09-19T07:00:58.637Z,55.77
2023-09-19T07:02:07.465Z,55.68
2023-09-19T07:03:17.572Z,55.82
2023-09-19T07:04:24.916Z,55.43
2023-09-19T07:05:32.547Z,55.09
2023-09-19T07:06:39.638Z,55.23
2023-09-19T07:07:47.116Z,55.22
2023-09-19T07:08:55.427Z,55.19
2023-09-19T07:10:01.712Z,55.09
2023-09-19T07:11:08.034Z,54.55
2023-09-19T07:12:15.252Z,54.48
2023-09-19T07:13:21.742Z,54.17
2023-09-19T07:14:29.640Z,53.87
2023-09-19T07:15:41.371Z,53.96
2023-09-19T07:16:48.848Z,54.16
2023-09-19T07:17:58.020Z,54.26
2023-09-19T07:19:05.472Z,54.11
2023-09-19T07:20:17.567Z,53.89
2023-09-19T07:21:23.857Z,53.85
2023-09-19T07:22:31.145Z,53.45
2023-09-19T07:23:39.703Z,53.25
2023-09-19T07:24:46.793Z,53.31
2023-09-19T07:25:58.260Z,53.43
2023-09-19T07:27:06.592Z,53.54
2023-09-19T07:28:13.163Z,53.46
2023-09-19T07:29:19.308Z,52.78
2023-09-19T07:30:26.703Z,52.27
2023-09-19T07:31:33.272Z,51.74
2023-09-19T07:32:42.473Z,52.05
2023-09-19T07:33:48.601Z,52.37
2023-09-19T07:34:57.086Z,52.52
2023-09-19T07:36:03.709Z,51.68
2023-09-19T07:37:10.911Z,51.19
2023-09-19T07:38:17.987Z,51.28
2023-09-19T07:39:24.196Z,51.32
2023-09-19T07:40:31.664Z,51.84
2023-09-19T07:41:38.521Z,51.62
2023-09-19T07:42:45.501Z,51.44
2023-09-19T07:43:52.209Z,51.58
2023-09-19T07:44:58.292Z,51.68
2023-09-19T07:46:10.445Z,51.48
2023-09-19T07:47:16.984Z,51.73
2023-09-19T07:48:23.361Z,51.95
2023-09-19T07:49:30.236Z,52.25
2023-09-19T07:50:38.072Z,52.58
2023-09-19T07:51:47.865Z,52.44
2023-09-19T07:52:55.919Z,52.38
2023-09-19T07:54:02.381Z,52.64
2023-09-19T07:55:10.968Z,52.60
2023-09-19T07:56:20.967Z,52.52
2023-09-19T07:57:27.700Z,52.48
2023-09-19T07:58:36.354Z,52.45
2023-09-19T07:59:43.227Z,52.47
2023-09-19T08:00:49.794Z,52.40
2023-09-19T08:01:56.374Z,52.53
2023-09-19T08:03:15.704Z,52.66
2023-09-19T08:04:27.745Z,52.21
2023-09-19T08:05:35.164Z,52.36
2023-09-19T08:06:41.157Z,52.28
2023-09-19T08:07:49.993Z,51.33
2023-09-19T08:08:57.893Z,51.16
2023-09-19T08:10:04.235Z,51.06
2023-09-19T08:11:14.220Z,50.81
2023-09-19T08:12:25.593Z,50.52
2023-09-19T08:13:34.111Z,50.37
2023-09-19T08:14:43.788Z,50.09
2023-09-19T08:15:50.364Z,49.63
2023-09-19T08:17:00.213Z,49.73
2023-09-19T08:18:09.060Z,49.64
2023-09-19T08:19:13.498Z,50.21
2023-09-19T08:20:20.533Z,49.97
2023-09-19T08:21:30.151Z,49.85
2023-09-19T08:22:36.863Z,49.00
2023-09-19T08:23:43.455Z,48.92
2023-09-19T08:24:50.202Z,49.32
2023-09-19T08:26:03.648Z,49.40
2023-09-19T08:27:11.753Z,48.39
2023-09-19T08:28:25.642Z,48.10
2023-09-19T08:29:32.689Z,46.79
2023-09-19T08:30:40.437Z,46.28
2023-09-19T08:31:50.976Z,46.43
2023-09-19T08:33:02.132Z,47.04
2023-09-19T08:34:08.834Z,46.03
2023-09-19T08:35:16.055Z,45.81
2023-09-19T08:36:22.244Z,45.66
2023-09-19T08:37:28.639Z,45.31
2023-09-19T08:38:37.336Z,46.05
2023-09-19T08:39:45.645Z,45.71
2023-09-19T08:40:52.548Z,45.78
2023-09-19T08:42:02.705Z,45.25
2023-09-19T08:43:09.632Z,43.93
2023-09-19T08:44:16.033Z,43.47
2023-09-19T08:45:28.905Z,43.16
2023-09-19T08:46:40.587Z,43.49
2023-09-19T08:47:56.580Z,43.35
2023-09-19T08:49:10.446Z,42.51
2023-09-19T08:50:26.913Z,42.31
2023-09-19T08:51:47.572Z,41.98
2023-09-19T08:52:56.676Z,41.77
2023-09-19T08:54:08.484Z,41.77
2023-09-19T08:55:22.827Z,41.94
2023-09-19T08:56:30.453Z,41.77
2023-09-19T08:57:44.354Z,41.56
2023-09-19T08:58:55.781Z,41.35
2023-09-19T09:00:11.004Z,41.51
2023-09-19T09:01:25.935Z,41.91
2023-09-19T09:02:35.338Z,41.64
2023-09-19T09:03:49.417Z,42.07
2023-09-19T09:04:58.709Z,41.73
2023-09-19T09:06:03.510Z,42.06
2023-09-19T09:07:13.981Z,42.15
2023-09-19T09:08:23.648Z,40.94
2023-09-19T09:09:32.041Z,40.38
2023-09-19T09:10:39.999Z,39.47
2023-09-19T09:11:47.274Z,39.81
2023-09-19T09:12:56.362Z,39.93
2023-09-19T09:14:03.563Z,39.74
2023-09-19T09:15:14.161Z,39.96
2023-09-19T09:16:20.867Z,40.52
2023-09-19T09:17:28.073Z,40.79
2023-09-19T09:18:35.424Z,40.40
2023-09-19T09:19:43.691Z,39.91
2023-09-19T09:20:50.242Z,39.82
2023-09-19T09:22:06.821Z,39.21
2023-09-19T09:23:15.216Z,39.08
2023-09-19T09:24:32.317Z,39.00
2023-09-19T09:26:04.117Z,39.21
2023-09-19T09:27:14.265Z,39.39
2023-09-19T09:28:24.759Z,39.13
2023-09-19T09:29:45.589Z,38.44
2023-09-19T09:30:51.742Z,38.28
2023-09-19T09:32:13.833Z,38.58
2023-09-19T09:33:20.551Z,37.73
2023-09-19T09:34:36.093Z,37.99
2023-09-19T09:35:54.666Z,38.43
2023-09-19T09:37:00.771Z,39.07
2023-09-19T09:38:10.205Z,39.23
2023-09-19T09:39:20.813Z,39.77
2023-09-19T09:40:37.503Z,39.56
2023-09-19T09:41:44.990Z,38.34
2023-09-19T09:42:53.977Z,37.91
2023-09-19T09:44:21.441Z,37.20
2023-09-19T09:45:39.254Z,37.28
2023-09-19T09:46:53.297Z,38.11
2023-09-19T09:48:04.618Z,37.66
2023-09-19T09:49:35.429Z,37.91
2023-09-19T09:50:49.745Z,38.10
2023-09-19T09:52:12.012Z,37.72
2023-09-19T09:53:29.291Z,38.08
2023-09-19T09:54:40.003Z,38.57
2023-09-19T09:56:08.176Z,38.24
2023-09-19T09:57:14.923Z,37.81
2023-09-19T09:58:30.592Z,37.51
2023-09-19T09:59:51.228Z,37.75
2023-09-19T10:01:04.869Z,37.60
2023-09-19T10:02:15.050Z,37.76
2023-09-19T10:03:32.932Z,38.12
2023-09-19T10:04:46.171Z,37.87
2023-09-19T10:05:58.565Z,38.10
2023-09-19T10:07:12.748Z,37.72
2023-09-19T10:08:20.411Z,37.27
2023-09-19T10:09:30.558Z,37.47
2023-09-19T10:10:42.426Z,37.96
2023-09-19T10:12:01.031Z,37.73
2023-09-19T10:13:09.225Z,37.54
2023-09-19T10:14:21.662Z,37.75
2023-09-19T10:15:34.546Z,37.94
2023-09-19T10:16:48.384Z,37.93
2023-09-19T10:17:57.688Z,38.04
2023-09-19T10:19:12.188Z,37.55
2023-09-19T10:20:34.661Z,37.68
2023-09-19T10:21:44.774Z,37.07
2023-09-19T10:23:01.020Z,37.04
2023-09-19T10:24:10.296Z,37.07
2023-09-19T10:25:22.853Z,36.95
2023-09-19T10:26:32.891Z,36.85
2023-09-19T10:27:41.174Z,36.89
2023-09-19T10:28:51.498Z,36.67
2023-09-19T10:30:01.070Z,36.41
2023-09-19T10:31:11.779Z,36.10
2023-09-19T10:32:20.834Z,36.18
2023-09-19T10:33:37.357Z,36.02
2023-09-19T10:34:46.436Z,36.28
2023-09-19T10:35:57.137Z,36.22
2023-09-19T10:37:07.130Z,36.41
2023-09-19T10:38:19.533Z,36.20
2023-09-19T10:39:26.932Z,36.03
2023-09-19T10:40:34.529Z,35.92
2023-09-19T10:41:41.923Z,35.67
2023-09-19T10:42:50.002Z,35.70
2023-09-19T10:44:01.199Z,35.88
2023-09-19T10:45:14.647Z,35.84
2023-09-19T10:46:20.993Z,35.80
2023-09-19T10:47:27.309Z,35.51
2023-09-19T10:48:34.562Z,35.37
2023-09-19T10:49:48.181Z,35.39
2023-09-19T10:51:05.830Z,34.91
2023-09-19T10:52:16.601Z,35.22
2023-09-19T10:53:24.186Z,35.17
2023-09-19T10:54:38.214Z,35.13
2023-09-19T10:55:57.036Z,35.02
2023-09-19T10:57:08.274Z,35.40
2023-09-19T10:58:25.482Z,35.80
2023-09-19T10:59:36.497Z,35.80
2023-09-19T11:01:18.542Z,35.74
2023-09-19T11:02:26.355Z,36.51
2023-09-19T11:03:34.580Z,36.16
2023-09-19T11:04:44.367Z,36.15
2023-09-19T11:06:21.506Z,36.24
2023-09-19T11:07:30.667Z,36.24
2023-09-19T11:09:16.095Z,35.58
2023-09-19T11:10:50.093Z,35.88
2023-09-19T11:11:58.518Z,35.53
2023-09-19T11:13:35.641Z,35.39
2023-09-19T11:14:46.051Z,35.27
2023-09-19T11:16:21.372Z,35.33
2023-09-19T11:17:46.999Z,35.88
2023-09-19T11:18:57.144Z,36.01
2023-09-19T11:20:37.285Z,35.87
2023-09-19T11:21:56.988Z,35.63
2023-09-19T11:23:24.656Z,35.21
2023-09-19T11:24:37.631Z,35.35
2023-09-19T11:25:51.245Z,35.66
2023-09-19T11:27:19.311Z,36.18
2023-09-19T11:28:38.580Z,36.31
2023-09-19T11:29:44.839Z,36.98
2023-09-19T11:30:55.540Z,36.98
2023-09-19T11:32:01.976Z,37.62
2023-09-19T11:33:22.573Z,37.59
2023-09-19T11:34:52.148Z,37.89
2023-09-19T11:36:07.067Z,38.36
2023-09-19T11:37:53.978Z,39.00
2023-09-19T11:39:10.619Z,39.00
2023-09-19T11:40:18.542Z,38.98
2023-09-19T11:41:43.238Z,39.11
2023-09-19T11:42:58.375Z,39.33
2023-09-19T11:44:39.718Z,39.56
2023-09-19T11:46:07.288Z,39.35
2023-09-19T11:47:14.951Z,39.46
2023-09-19T11:48:26.694Z,39.59
2023-09-19T11:49:35.195Z,39.57
2023-09-19T11:50:45.412Z,39.58
2023-09-19T11:51:53.935Z,39.32
2023-09-19T11:52:58.764Z,38.93
2023-09-19T11:54:18.993Z,38.93
2023-09-19T11:55:32.138Z,38.62
2023-09-19T11:56:45.581Z,38.46
2023-09-19T11:57:56.972Z,38.33
2023-09-19T11:59:04.823Z,37.62
2023-09-19T12:00:20.224Z,37.44
2023-09-19T12:01:31.354Z,36.95
2023-09-19T12:02:45.534Z,37.09
2023-09-19T12:03:58.334Z,36.58
2023-09-19T12:05:05.292Z,36.78
2023-09-19T12:06:15.928Z,36.75
2023-09-19T12:07:23.566Z,36.90
2023-09-19T12:08:31.985Z,37.47
2023-09-19T12:09:39.000Z,37.25
2023-09-19T12:10:57.436Z,37.67
2023-09-19T12:12:04.093Z,38.07
2023-09-19T12:13:11.600Z,38.15
2023-09-19T12:14:28.638Z,37.86
2023-09-19T12:15:40.104Z,38.02
2023-09-19T12:16:56.981Z,38.40
2023-09-19T12:18:05.406Z,38.46
2023-09-19T12:19:25.183Z,38.64
2023-09-19T12:22:19.141Z,39.59
2023-09-19T12:23:27.041Z,39.96
2023-09-19T12:24:34.146Z,40.67
2023-09-19T12:25:48.712Z,41.16
2023-09-19T12:26:58.277Z,42.53
2023-09-19T12:28:05.462Z,43.08
2023-09-19T12:29:16.785Z,43.56
2023-09-19T12:30:28.746Z,43.76
2023-09-19T12:31:38.610Z,44.19
2023-09-19T12:32:45.500Z,44.80
2023-09-19T12:33:56.548Z,45.34
2023-09-19T12:35:08.977Z,45.94
2023-09-19T12:36:31.810Z,46.74
2023-09-19T12:37:38.551Z,47.15
2023-09-19T12:38:51.148Z,47.45
2023-09-19T12:40:18.486Z,47.54
2023-09-19T12:41:27.135Z,48.01
2023-09-19T12:42:33.872Z,48.60
2023-09-19T12:43:43.657Z,48.63
2023-09-19T12:44:56.561Z,48.44
2023-09-19T12:46:04.155Z,48.57
2023-09-19T12:47:17.418Z,48.59
2023-09-19T12:48:33.141Z,48.70
2023-09-19T12:50:18.337Z,48.87
2023-09-19T12:51:27.947Z,49.49
2023-09-19T12:52:39.985Z,49.78
2023-09-19T12:53:58.494Z,49.84
2023-09-19T12:55:08.136Z,50.64
2023-09-19T12:56:17.028Z,51.07
2023-09-19T12:57:28.286Z,51.59
2023-09-19T12:58:36.304Z,52.62
2023-09-19T12:59:43.933Z,52.68
2023-09-19T13:00:53.472Z,53.18
2023-09-19T13:02:15.219Z,54.10
2023-09-19T13:03:36.223Z,55.11
2023-09-19T13:04:53.492Z,56.23
2023-09-19T13:06:05.119Z,56.72
2023-09-19T13:07:45.246Z,56.40
2023-09-19T13:09:09.552Z,56.40
2023-09-19T13:10:17.489Z,55.98
2023-09-19T13:11:23.681Z,56.01
2023-09-19T13:12:40.047Z,55.80
2023-09-19T13:13:51.158Z,55.88
2023-09-19T13:15:26.213Z,56.08
2023-09-19T13:16:33.315Z,56.31
2023-09-19T13:17:51.366Z,56.81
2023-09-19T13:18:59.198Z,56.50
2023-09-19T13:20:08.740Z,56.74
2023-09-19T13:21:39.115Z,57.64
2023-09-19T13:22:50.290Z,57.96
2023-09-19T13:24:17.497Z,58.33
2023-09-19T13:25:25.228Z,58.60
2023-09-19T13:26:32.276Z,59.29
2023-09-19T13:27:38.420Z,59.90
2023-09-19T13:28:45.463Z,60.11
2023-09-19T13:29:51.959Z,60.66
2023-09-19T13:30:58.554Z,61.07
2023-09-19T13:32:06.736Z,60.95
2023-09-19T13:33:22.472Z,61.22
2023-09-19T13:34:30.605Z,61.54
2023-09-19T13:35:37.889Z,61.84
2023-09-19T13:36:44.688Z,61.79
2023-09-19T13:37:53.500Z,62.39
2023-09-19T13:38:57.716Z,62.57
2023-09-19T13:40:06.501Z,63.02
2023-09-19T13:41:15.357Z,62.66
2023-09-19T13:42:22.795Z,63.13
2023-09-19T13:43:30.137Z,63.17
2023-09-19T13:44:36.503Z,63.69
2023-09-19T13:45:43.921Z,63.20
2023-09-19T13:46:50.060Z,62.87
2023-09-19T13:47:57.663Z,63.24
2023-09-19T13:49:05.200Z,62.84
2023-09-19T13:50:12.850Z,62.88
2023-09-19T13:51:20.578Z,63.19
2023-09-19T13:52:29.251Z,63.31
2023-09-19T13:53:35.813Z,63.31
2023-09-19T13:54:42.937Z,63.40
2023-09-19T13:55:49.923Z,63.04
2023-09-19T13:56:56.584Z,62.92
2023-09-19T13:58:02.818Z,62.65
2023-09-19T13:59:09.393Z,62.63
2023-09-19T14:00:17.595Z,62.35
2023-09-19T14:01:23.862Z,62.15
2023-09-19T14:02:31.159Z,61.93
2023-09-19T14:03:37.699Z,61.71
2023-09-19T14:04:44.431Z,61.73
2023-09-19T14:05:52.853Z,61.50
2023-09-19T14:06:59.619Z,61.55
2023-09-19T14:08:07.124Z,61.46
2023-09-19T14:09:14.606Z,61.21
2023-09-19T14:10:20.892Z,61.23
2023-09-19T14:11:27.587Z,61.00
2023-09-19T14:12:35.056Z,61.18
2023-09-19T14:13:41.660Z,62.08
2023-09-19T14:14:48.580Z,62.67
2023-09-19T14:15:55.340Z,62.77
2023-09-19T14:17:02.220Z,63.30
2023-09-19T14:18:10.708Z,63.01
2023-09-19T14:19:17.608Z,63.25
2023-09-19T14:20:24.922Z,63.23
2023-09-19T14:21:32.045Z,63.33
2023-09-19T14:22:38.207Z,63.40
2023-09-19T14:23:45.150Z,63.51
2023-09-19T14:24:51.768Z,63.51
2023-09-19T14:26:02.100Z,63.53
2023-09-19T14:27:10.285Z,63.59
2023-09-19T14:28:16.437Z,63.88
2023-09-19T14:29:24.382Z,63.99
2023-09-19T14:30:31.410Z,64.05
2023-09-19T14:31:41.480Z,64.13
2023-09-19T14:32:48.154Z,64.36
2023-09-19T14:34:00.426Z,64.13
2023-09-19T14:35:10.779Z,64.27
2023-09-19T14:36:18.533Z,64.72
2023-09-19T14:37:24.864Z,64.88
2023-09-19T14:38:31.560Z,64.70
2023-09-19T14:39:39.676Z,64.49
2023-09-19T14:40:46.690Z,64.59
2023-09-19T14:41:53.361Z,64.56
2023-09-19T14:42:59.742Z,64.37
2023-09-19T14:44:08.902Z,64.22
2023-09-19T14:45:16.075Z,63.47
2023-09-19T14:46:25.753Z,63.82
2023-09-19T14:47:35.818Z,63.78
2023-09-19T14:48:44.261Z,63.30
2023-09-19T14:49:51.132Z,63.60
2023-09-19T14:51:03.901Z,63.82
2023-09-19T14:52:11.498Z,63.65
2023-09-19T14:53:18.754Z,63.80
2023-09-19T14:54:25.543Z,63.76
2023-09-19T14:55:35.699Z,63.80
2023-09-19T14:56:42.997Z,63.73
2023-09-19T14:57:54.228Z,63.90
2023-09-19T14:59:02.043Z,63.98
2023-09-19T15:00:13.387Z,64.04
2023-09-19T15:01:20.137Z,64.15
2023-09-19T15:02:26.985Z,64.01
2023-09-19T15:03:35.903Z,63.89
2023-09-19T15:04:42.936Z,63.92